Time;durP1;ratioP1;P1;durP2;ratioP2;P2;SDS_P1;SDS_P2;PMS_P1;PMS_P2;Temp;Humidity;BMP_temperature;BMP_pressure;BME280_temperature;BME280_humidity;BME280_pressure;Samples;Min_cycle;Max_cycle;Signal;HPM_P1;HPM_P2
2023/03/16 00:02:06;;;;;;;5.80;4.63;;;;;;;13.03;41.67;101778.91;5065303;28;20021;-66
2023/03/16 00:04:36;;;;;;;7.50;4.73;;;;;;;12.93;41.08;101772.00;5053491;28;20028;-66
2023/03/16 00:07:08;;;;;;;7.67;4.67;;;;;;;12.52;41.89;101778.28;5062181;28;20021;-66
2023/03/16 00:09:34;;;;;;;7.78;4.95;;;;;;;12.71;42.31;101766.84;5062638;28;20032;-66
2023/03/16 00:12:04;;;;;;;8.53;4.83;;;;;;;13.16;40.91;101763.09;5060743;28;20016;-66
2023/03/16 00:14:31;;;;;;;9.37;4.90;;;;;;;13.31;40.42;101760.41;5047616;28;20035;-66
2023/03/16 00:16:56;;;;;;;6.27;4.90;;;;;;;13.19;40.64;101758.72;5061976;28;20512;-66
2023/03/16 00:19:22;;;;;;;7.20;4.90;;;;;;;13.24;40.83;101750.81;5063696;28;20024;-66
2023/03/16 00:21:50;;;;;;;7.13;5.20;;;;;;;13.05;41.67;101758.81;5060451;28;20033;-66
2023/03/16 00:24:16;;;;;;;8.53;4.50;;;;;;;13.13;41.25;101752.63;5062217;28;20500;-66
2023/03/16 00:26:42;;;;;;;10.27;5.27;;;;;;;12.89;42.24;101741.41;5058194;28;20027;-66
2023/03/16 00:29:08;;;;;;;11.47;5.47;;;;;;;13.14;41.01;101746.50;5055401;28;20029;-66
2023/03/16 00:31:33;;;;;;;10.07;5.30;;;;;;;12.74;41.96;101752.84;5063169;28;20031;-66
2023/03/16 00:33:58;;;;;;;11.90;5.83;;;;;;;12.70;42.77;101754.59;5061543;28;20028;-66
2023/03/16 00:36:24;;;;;;;7.00;5.10;;;;;;;12.90;42.13;101753.66;5063279;28;20024;-66
2023/03/16 00:38:50;;;;;;;10.70;5.97;;;;;;;13.33;41.09;101740.25;5055118;28;20024;-66
2023/03/16 00:41:15;;;;;;;9.50;5.10;;;;;;;12.64;42.75;101738.91;5064253;28;20129;-66
2023/03/16 00:43:43;;;;;;;10.10;6.00;;;;;;;12.33;42.60;101735.50;5056565;28;20035;-66
2023/03/16 00:46:14;;;;;;;12.63;6.17;;;;;;;12.88;42.31;101727.38;5059870;28;20025;-66
2023/03/16 00:48:43;;;;;;;8.57;5.67;;;;;;;12.55;42.95;101726.66;5061714;28;20078;-66
2023/03/16 00:51:16;;;;;;;11.03;6.00;;;;;;;12.85;42.76;101716.06;5057467;28;20463;-67
2023/03/16 00:53:43;;;;;;;7.63;5.43;;;;;;;12.85;43.31;101713.44;5058597;28;20016;-66
2023/03/16 00:56:09;;;;;;;10.83;6.07;;;;;;;13.18;42.08;101712.34;5058392;28;20432;-66
2023/03/16 00:58:38;;;;;;;8.67;6.00;;;;;;;12.82;42.83;101718.72;5063345;28;20028;-66
2023/03/16 01:01:06;;;;;;;12.67;5.70;;;;;;;12.63;43.44;101713.53;5057909;28;20617;-66
2023/03/16 01:03:33;;;;;;;10.40;5.80;;;;;;;12.71;43.41;101706.50;5059033;28;20028;-66
2023/03/16 01:06:04;;;;;;;13.70;6.40;;;;;;;12.49;44.09;101710.13;5059641;28;20029;-66
2023/03/16 01:08:31;;;;;;;16.07;6.60;;;;;;;12.65;43.53;101703.94;5062644;28;20030;-66
2023/03/16 01:11:02;;;;;;;8.23;5.37;;;;;;;12.87;43.61;101695.91;5061320;28;20028;-66
2023/03/16 01:13:28;;;;;;;9.80;5.93;;;;;;;12.12;45.29;101699.75;5053575;28;20028;-66
2023/03/16 01:15:53;;;;;;;10.90;5.87;;;;;;;13.32;43.20;101693.84;5058577;28;20035;-66
2023/03/16 01:18:19;;;;;;;12.53;5.57;;;;;;;13.60;42.14;101698.94;5063266;28;20039;-66
2023/03/16 01:20:49;;;;;;;14.20;6.70;;;;;;;12.95;43.16;101694.13;5061417;28;20020;-66
2023/03/16 01:23:19;;;;;;;9.67;5.70;;;;;;;12.53;43.72;101691.72;5055096;28;20458;-66
2023/03/16 01:25:51;;;;;;;15.03;6.20;;;;;;;12.99;43.60;101685.34;5062898;28;20836;-66
2023/03/16 01:28:25;;;;;;;11.23;5.67;;;;;;;12.94;43.47;101687.16;5061576;28;20047;-67
2023/03/16 01:30:56;;;;;;;10.97;6.03;;;;;;;13.45;43.19;101678.03;5060458;28;20498;-66
2023/03/16 01:33:22;;;;;;;11.27;5.77;;;;;;;13.29;43.12;101682.53;5057648;28;20423;-66
2023/03/16 01:35:56;;;;;;;11.97;6.00;;;;;;;13.51;42.99;101678.84;5058541;28;20037;-66
2023/03/16 01:38:22;;;;;;;12.23;5.87;;;;;;;13.23;43.91;101678.19;5057646;28;20024;-66
2023/03/16 01:40:50;;;;;;;10.50;6.00;;;;;;;13.16;43.60;101672.13;5061034;28;20530;-66
2023/03/16 01:43:17;;;;;;;10.57;6.07;;;;;;;12.73;44.44;101657.53;5058985;28;20025;-66
2023/03/16 01:46:13;;;;;;;8.13;5.40;;;;;;;13.05;44.09;101652.94;5061589;28;20027;-66
2023/03/16 01:48:46;;;;;;;10.00;5.73;;;;;;;13.21;43.75;101661.56;5058463;28;20044;-66
2023/03/16 01:51:22;;;;;;;12.83;5.97;;;;;;;12.80;44.63;101647.00;5062547;28;20034;-66
2023/03/16 01:53:54;;;;;;;15.77;5.63;;;;;;;12.63;44.92;101649.72;5057701;28;20111;-65
2023/03/16 01:56:23;;;;;;;;;;;;;;;13.19;44.12;101644.97;5055163;28;20025;-65
2023/03/16 01:58:51;;;;;;;11.57;6.50;;;;;;;12.79;45.37;101640.00;5059519;28;19923;-66
2023/03/16 02:01:17;;;;;;;8.63;6.07;;;;;;;13.18;44.48;101643.22;5063342;28;20480;-65
2023/03/16 02:03:43;;;;;;;9.07;6.13;;;;;;;13.02;44.61;101643.34;5059501;28;20082;-65
2023/03/16 02:06:18;;;;;;;9.57;6.20;;;;;;;12.05;46.85;101643.84;5060776;28;20056;-65
2023/03/16 02:08:45;;;;;;;9.83;5.97;;;;;;;12.38;46.64;101642.84;5058629;28;20107;-65
2023/03/16 02:11:16;;;;;;;14.23;6.30;;;;;;;12.52;46.63;101634.03;5060508;28;20047;-65
2023/03/16 02:13:43;;;;;;;10.27;6.20;;;;;;;11.98;47.49;101632.53;5061848;28;20031;-65
2023/03/16 02:16:09;;;;;;;9.60;6.33;;;;;;;11.97;49.06;101628.16;5059596;28;20387;-65
2023/03/16 02:18:35;;;;;;;10.50;6.40;;;;;;;12.63;47.84;101624.34;5059998;28;20089;-65
2023/03/16 02:21:03;;;;;;;13.47;6.37;;;;;;;12.51;47.71;101619.19;5058776;28;20032;-68
2023/03/16 02:23:31;;;;;;;12.70;6.40;;;;;;;12.32;48.40;101619.28;5057571;28;20032;-68
2023/03/16 02:26:15;;;;;;;11.10;6.33;;;;;;;12.66;48.90;101608.59;5058129;28;20024;-65
2023/03/16 02:29:39;;;;;;;12.93;6.23;;;;;;;12.07;48.91;101615.88;5057823;28;20039;-67
2023/03/16 02:32:04;;;;;;;13.40;6.70;;;;;;;12.43;49.12;101610.50;5059160;28;20043;-65
2023/03/16 02:34:30;;;;;;;11.47;6.17;;;;;;;12.22;49.88;101609.72;5058711;28;20025;-65
2023/03/16 02:36:57;;;;;;;12.50;6.30;;;;;;;11.93;51.20;101604.56;5063528;28;20028;-66
2023/03/16 02:39:23;;;;;;;13.30;6.77;;;;;;;12.13;50.46;101607.13;5064691;28;20498;-65
2023/03/16 02:41:48;;;;;;;9.80;5.87;;;;;;;12.10;49.97;101599.28;5057827;28;20020;-66
2023/03/16 02:44:23;;;;;;;9.30;6.13;;;;;;;12.13;50.44;101599.25;5065229;28;20093;-65
2023/03/16 02:46:51;;;;;;;11.27;6.03;;;;;;;12.88;49.39;101592.72;5065931;28;20048;-68
2023/03/16 02:49:38;;;;;;;12.73;6.50;;;;;;;12.89;49.10;101604.97;5063154;28;20063;-66
2023/03/16 02:52:05;;;;;;;9.23;6.17;;;;;;;12.47;49.67;101601.72;5062317;28;20480;-65
2023/03/16 02:54:31;;;;;;;13.70;6.07;;;;;;;12.13;50.62;101607.13;5062975;28;20094;-65
2023/03/16 02:56:56;;;;;;;11.87;6.60;;;;;;;12.72;50.14;101597.19;5064418;28;20487;-65
2023/03/16 02:59:21;;;;;;;7.70;5.90;;;;;;;12.39;50.25;101600.03;5064630;28;20347;-65
2023/03/16 03:01:47;;;;;;;13.17;5.77;;;;;;;12.64;50.98;101599.88;5063418;28;20028;-65
2023/03/16 03:04:12;;;;;;;9.30;5.67;;;;;;;11.95;51.56;101603.72;5063853;28;20082;-65
2023/03/16 03:06:38;;;;;;;13.07;6.30;;;;;;;12.35;51.04;101593.06;5064337;28;20119;-68
2023/03/16 03:09:04;;;;;;;11.53;6.13;;;;;;;12.26;52.37;101585.22;5064466;28;20027;-65
2023/03/16 03:11:30;;;;;;;11.70;5.33;;;;;;;12.25;53.07;101590.47;5063714;28;20077;-65
2023/03/16 03:13:56;;;;;;;13.07;6.00;;;;;;;12.59;51.49;101600.78;5063303;28;20032;-65
2023/03/16 03:16:21;;;;;;;12.13;6.57;;;;;;;12.42;52.11;101598.25;5062662;28;20031;-65
2023/03/16 03:18:47;;;;;;;9.63;5.60;;;;;;;12.79;50.96;101587.53;5063690;28;20032;-65
2023/03/16 03:21:13;;;;;;;9.73;5.60;;;;;;;13.13;50.12;101584.66;5059492;28;20020;-65
2023/03/16 03:23:38;;;;;;;8.03;5.20;;;;;;;12.60;50.91;101577.19;5060331;28;20029;-65
2023/03/16 03:26:04;;;;;;;13.20;6.00;;;;;;;12.78;50.22;101576.16;5062692;28;20468;-65
2023/03/16 03:28:33;;;;;;;14.50;6.33;;;;;;;12.90;51.12;101575.22;5062894;28;20028;-65
2023/03/16 03:31:00;;;;;;;12.87;5.60;;;;;;;12.59;50.96;101583.28;5062781;28;20035;-66
2023/03/16 03:33:25;;;;;;;12.70;5.40;;;;;;;13.09;50.57;101570.66;5064264;28;20140;-65
2023/03/16 03:35:55;;;;;;;8.27;5.37;;;;;;;13.11;49.33;101568.91;5064759;28;20448;-65
2023/03/16 03:38:21;;;;;;;8.40;5.63;;;;;;;13.83;47.79;101567.31;5059334;28;20129;-66
2023/03/16 03:40:51;;;;;;;9.47;5.73;;;;;;;13.18;49.42;101569.72;5063680;28;20115;-65
2023/03/16 03:43:17;;;;;;;12.87;5.80;;;;;;;13.23;48.99;101573.19;5063251;28;20024;-65
2023/03/16 03:45:42;;;;;;;10.20;5.07;;;;;;;12.77;49.24;101568.31;5058649;28;20433;-65
2023/03/16 03:48:07;;;;;;;11.10;5.33;;;;;;;13.44;48.24;101560.78;5063258;28;20206;-65
2023/03/16 03:50:33;;;;;;;11.27;5.43;;;;;;;12.88;49.96;101571.72;5064074;28;20431;-66
2023/03/16 03:52:58;;;;;;;8.73;6.13;;;;;;;12.70;50.07;101562.25;5065041;28;20017;-65
2023/03/16 03:55:23;;;;;;;9.60;5.10;;;;;;;12.66;50.38;101555.28;5064234;28;20404;-66
2023/03/16 03:57:49;;;;;;;9.77;5.60;;;;;;;12.58;50.91;101549.22;5061124;28;20024;-65
2023/03/16 04:00:19;;;;;;;11.83;5.27;;;;;;;13.25;49.00;101534.66;5061824;28;20027;-65
2023/03/16 04:02:44;;;;;;;14.13;5.33;;;;;;;12.88;50.03;101540.25;5058845;28;20016;-65
2023/03/16 04:05:10;;;;;;;10.43;4.97;;;;;;;12.24;51.77;101541.56;5063570;28;20392;-65
2023/03/16 04:07:35;;;;;;;12.40;5.60;;;;;;;13.18;49.79;101543.47;5063463;28;20032;-65
2023/03/16 04:10:00;;;;;;;7.77;5.03;;;;;;;12.90;50.18;101546.34;5061670;28;20028;-65
2023/03/16 04:12:26;;;;;;;7.70;4.87;;;;;;;12.94;50.21;101553.31;5063132;28;20024;-65
2023/03/16 04:14:51;;;;;;;7.23;4.40;;;;;;;12.32;51.97;101553.75;5061440;28;20040;-66
2023/03/16 04:17:17;;;;;;;11.43;5.00;;;;;;;12.52;52.10;101547.50;5061900;28;20681;-65
2023/03/16 04:19:42;;;;;;;11.27;5.10;;;;;;;12.59;51.55;101543.09;5060756;28;20548;-65
2023/03/16 04:22:08;;;;;;;10.87;4.63;;;;;;;12.74;50.99;101542.97;5063048;28;20038;-65
2023/03/16 04:24:33;;;;;;;9.83;4.97;;;;;;;13.55;49.27;101543.13;5057815;28;20016;-65
2023/03/16 04:26:59;;;;;;;12.37;5.57;;;;;;;12.30;52.07;101537.16;5062642;28;20392;-65
2023/03/16 04:29:25;;;;;;;6.70;4.70;;;;;;;11.77;54.11;101539.09;5060075;28;20124;-65
2023/03/16 04:31:52;;;;;;;9.83;4.30;;;;;;;12.34;53.86;101527.53;5062342;28;20128;-66
2023/03/16 04:34:18;;;;;;;9.30;4.13;;;;;;;12.29;53.01;101530.16;5062714;28;20024;-66
2023/03/16 04:36:43;;;;;;;6.73;4.20;;;;;;;12.25;53.24;101528.44;5061070;28;20043;-65
2023/03/16 04:39:09;;;;;;;15.37;4.87;;;;;;;12.25;52.74;101528.44;5060263;28;20036;-65
2023/03/16 04:41:35;;;;;;;7.03;4.37;;;;;;;12.05;54.09;101521.56;5063326;28;20024;-65
2023/03/16 04:44:00;;;;;;;12.90;4.50;;;;;;;13.25;51.41;101513.66;5061975;28;20024;-66
2023/03/16 04:46:25;;;;;;;6.50;4.47;;;;;;;12.91;52.42;101519.22;5061506;28;20411;-65
2023/03/16 04:48:51;;;;;;;9.80;4.73;;;;;;;12.59;52.47;101511.63;5062490;28;20592;-65
2023/03/16 04:51:17;;;;;;;9.63;4.47;;;;;;;12.34;53.23;101512.66;5061606;28;20017;-65
2023/03/16 04:53:43;;;;;;;10.00;4.77;;;;;;;12.43;53.61;101510.84;5062668;28;20409;-65
2023/03/16 04:56:16;;;;;;;10.40;4.37;;;;;;;12.24;54.77;101515.34;5062762;28;20025;-65
2023/03/16 04:58:42;;;;;;;8.80;4.60;;;;;;;12.59;53.31;101512.50;5053732;28;20082;-65
2023/03/16 05:01:08;;;;;;;8.40;4.50;;;;;;;12.48;54.13;101515.19;5060993;28;20408;-65
2023/03/16 05:03:34;;;;;;;8.90;4.40;;;;;;;12.15;56.61;101514.53;5065498;28;20103;-65
2023/03/16 05:05:59;;;;;;;13.27;4.73;;;;;;;12.12;55.46;101516.31;5063481;28;20094;-65
2023/03/16 05:08:25;;;;;;;10.07;4.30;;;;;;;12.43;54.99;101503.00;5064563;28;20127;-68
2023/03/16 05:10:50;;;;;;;8.50;4.60;;;;;;;12.01;57.70;101509.34;5065441;28;20047;-67
2023/03/16 05:13:15;;;;;;;10.87;5.43;;;;;;;12.26;56.51;101509.22;5054440;28;20028;-68
2023/03/16 05:15:41;;;;;;;7.60;4.30;;;;;;;12.27;57.60;101500.47;5063845;28;20032;-68
2023/03/16 05:18:06;;;;;;;7.57;4.17;;;;;;;11.97;58.26;101505.00;5066253;28;20484;-64
2023/03/16 05:20:32;;;;;;;8.37;4.87;;;;;;;11.78;57.79;101500.72;5065489;28;20082;-66
2023/03/16 05:22:57;;;;;;;9.57;4.87;;;;;;;12.42;57.30;101503.88;5066676;28;20488;-66
2023/03/16 05:25:23;;;;;;;13.33;5.33;;;;;;;12.54;57.64;101493.28;5068155;28;20054;-66
2023/03/16 05:27:50;;;;;;;8.40;4.70;;;;;;;12.00;58.43;101497.13;5069348;28;20056;-66
2023/03/16 05:30:17;;;;;;;9.70;4.60;;;;;;;12.08;58.79;101493.63;5064531;28;20032;-66
2023/03/16 05:32:43;;;;;;;13.00;4.37;;;;;;;12.00;59.74;101480.53;5064825;28;20443;-66
2023/03/16 05:35:12;;;;;;;12.80;4.80;;;;;;;11.16;62.39;101487.81;5046117;28;20120;-66
2023/03/16 05:37:38;;;;;;;11.60;5.33;;;;;;;12.10;59.53;101483.97;5058946;28;20038;-66
2023/03/16 05:40:16;;;;;;;8.63;4.90;;;;;;;12.53;58.94;101481.09;5065932;28;20087;-66
2023/03/16 05:42:46;;;;;;;9.60;4.50;;;;;;;12.00;61.13;101473.53;5064144;28;20035;-66
2023/03/16 05:45:13;;;;;;;6.40;4.20;;;;;;;12.04;60.56;101483.13;5065987;28;20519;-66
2023/03/16 05:47:40;;;;;;;6.73;4.13;;;;;;;10.85;64.12;101485.22;5065617;28;20492;-65
2023/03/16 05:50:08;;;;;;;10.57;4.23;;;;;;;12.03;60.57;101484.03;5059760;28;20020;-66
2023/03/16 05:52:34;;;;;;;5.77;4.00;;;;;;;12.43;59.27;101480.25;5063147;28;20113;-65
2023/03/16 05:54:59;;;;;;;11.37;4.07;;;;;;;12.63;57.02;101477.50;5062331;28;20060;-66
2023/03/16 05:57:25;;;;;;;7.33;3.50;;;;;;;12.39;57.22;101481.16;5061194;28;20200;-66
2023/03/16 05:59:51;;;;;;;7.63;3.47;;;;;;;11.07;61.90;101487.81;5059984;28;20056;-66
2023/03/16 06:02:17;;;;;;;6.97;4.00;;;;;;;11.29;63.55;101481.69;5060584;28;20570;-65
2023/03/16 06:04:42;;;;;;;5.63;3.20;;;;;;;11.67;61.55;101467.56;5079060;28;20119;-65
2023/03/16 06:07:07;;;;;;;9.33;4.20;;;;;;;11.30;64.64;101472.94;5067241;28;20174;-65
2023/03/16 06:09:33;;;;;;;7.40;4.57;;;;;;;12.11;60.65;101477.88;5060220;28;20496;-65
2023/03/16 06:11:58;;;;;;;6.73;4.17;;;;;;;11.44;62.36;101469.41;5058601;28;20032;-65
2023/03/16 06:14:24;;;;;;;9.33;3.93;;;;;;;12.02;61.77;101469.19;5064037;28;20336;-66
2023/03/16 06:16:49;;;;;;;8.37;4.17;;;;;;;12.11;59.66;101462.16;5060342;28;20488;-65
2023/03/16 06:19:15;;;;;;;5.67;3.87;;;;;;;11.86;61.03;101472.72;5064015;28;20024;-66
2023/03/16 06:21:41;;;;;;;6.27;4.00;;;;;;;11.30;62.90;101465.09;5059881;28;20017;-66
2023/03/16 06:24:08;;;;;;;7.07;3.87;;;;;;;11.49;61.80;101459.81;5065244;28;20378;-66
2023/03/16 06:26:34;;;;;;;8.43;3.87;;;;;;;11.32;62.00;101468.59;5057931;28;20037;-65
2023/03/16 06:28:59;;;;;;;6.57;3.97;;;;;;;11.33;65.50;101454.63;5063869;28;20032;-66
2023/03/16 06:31:25;;;;;;;17.90;5.07;;;;;;;11.37;66.11;101452.84;5057623;28;20032;-66
2023/03/16 06:33:50;;;;;;;10.03;4.07;;;;;;;11.48;62.43;101456.28;5064408;28;20488;-66
2023/03/16 06:36:16;;;;;;;7.80;4.17;;;;;;;11.83;61.65;101451.81;5061945;28;20025;-66
2023/03/16 06:38:41;;;;;;;9.67;4.27;;;;;;;12.17;61.75;101447.25;5061800;28;20023;-65
2023/03/16 06:41:07;;;;;;;7.83;3.93;;;;;;;11.36;64.08;101446.75;5064633;28;20069;-66
2023/03/16 06:43:32;;;;;;;12.30;4.20;;;;;;;11.65;62.68;101442.25;5065042;28;20365;-66
2023/03/16 06:45:58;;;;;;;8.93;4.00;;;;;;;11.69;62.04;101444.88;5065287;28;20051;-65
2023/03/16 06:48:23;;;;;;;12.93;4.53;;;;;;;11.68;64.08;101435.28;5064866;28;20037;-66
2023/03/16 06:50:49;;;;;;;10.70;4.07;;;;;;;11.80;64.33;101430.84;5057887;28;20040;-66
2023/03/16 06:53:14;;;;;;;7.93;4.00;;;;;;;11.24;66.15;101423.25;5064782;28;20346;-66
2023/03/16 06:55:40;;;;;;;14.27;4.93;;;;;;;11.48;63.39;101418.78;5059360;28;20383;-66
2023/03/16 06:58:06;;;;;;;9.13;4.53;;;;;;;11.16;63.88;101430.25;5064305;28;20052;-66
2023/03/16 07:00:32;;;;;;;6.10;4.20;;;;;;;11.65;63.46;101432.69;5065799;28;20518;-66
2023/03/16 07:03:00;;;;;;;9.47;4.33;;;;;;;11.43;62.10;101431.00;5062306;28;20025;-66
2023/03/16 07:05:26;;;;;;;11.83;5.63;;;;;;;11.46;64.16;101431.88;5061871;28;20828;-66
2023/03/16 07:07:51;;;;;;;12.73;3.90;;;;;;;11.60;63.24;101426.59;5062981;28;20032;-66
2023/03/16 07:10:18;;;;;;;7.50;4.00;;;;;;;11.36;64.60;101419.69;5066674;28;20031;-66
2023/03/16 07:12:43;;;;;;;11.77;3.83;;;;;;;11.09;64.13;101431.16;5063418;28;20484;-66
2023/03/16 07:15:10;;;;;;;9.63;4.27;;;;;;;11.65;63.13;101416.97;5063052;28;20040;-66
2023/03/16 07:17:36;;;;;;;12.87;4.30;;;;;;;12.18;59.93;101419.28;5061919;28;20025;-66
2023/03/16 07:20:04;;;;;;;7.40;4.03;;;;;;;12.42;59.76;101427.84;5060833;28;20020;-66
2023/03/16 07:22:30;;;;;;;8.90;4.03;;;;;;;12.29;58.87;101434.94;5065982;28;20047;-65
2023/03/16 07:24:56;;;;;;;9.77;3.47;;;;;;;11.78;60.79;101422.13;5063860;28;20468;-66
2023/03/16 07:27:25;;;;;;;7.63;4.33;;;;;;;11.52;63.13;101416.13;5067238;28;20391;-66
2023/03/16 07:29:53;;;;;;;7.60;3.87;;;;;;;11.43;63.44;101420.53;5062665;28;20032;-66
2023/03/16 07:32:19;;;;;;;9.07;3.60;;;;;;;12.41;58.74;101420.88;5066994;28;20031;-66
2023/03/16 07:34:44;;;;;;;9.77;4.17;;;;;;;12.17;59.21;101418.44;5067629;28;20020;-67
2023/03/16 07:37:10;;;;;;;9.60;3.87;;;;;;;12.50;58.27;101418.16;5067137;28;20028;-66
2023/03/16 07:39:36;;;;;;;11.37;3.83;;;;;;;12.25;58.87;101425.34;5068008;28;20051;-68
2023/03/16 07:42:02;;;;;;;6.77;3.23;;;;;;;12.28;58.05;101431.47;5069195;28;20025;-66
2023/03/16 07:44:28;;;;;;;8.70;3.40;;;;;;;12.51;57.51;101436.50;5061728;28;20575;-67
2023/03/16 07:46:53;;;;;;;7.97;3.77;;;;;;;11.99;58.64;101427.28;5057813;28;20045;-67
2023/03/16 07:49:19;;;;;;;13.53;3.70;;;;;;;12.59;58.03;101428.56;5061414;28;20078;-67
2023/03/16 07:51:44;;;;;;;7.83;3.77;;;;;;;12.69;56.31;101419.75;5070013;28;20095;-66
2023/03/16 07:54:10;;;;;;;10.10;3.23;;;;;;;12.24;58.10;101427.13;5065632;28;20119;-67
2023/03/16 07:56:35;;;;;;;7.70;3.37;;;;;;;11.98;57.09;101425.53;5062751;28;20063;-67
2023/03/16 07:59:01;;;;;;;8.67;3.30;;;;;;;12.32;56.12;101430.56;5067209;28;20028;-67
2023/03/16 08:01:27;;;;;;;7.80;3.07;;;;;;;12.29;57.01;101438.41;5064347;28;20569;-67
2023/03/16 08:03:52;;;;;;;7.77;3.20;;;;;;;12.35;56.67;101437.50;5065926;28;20111;-67
2023/03/16 08:06:18;;;;;;;4.90;2.77;;;;;;;12.34;57.03;101438.41;5066754;28;20651;-66
2023/03/16 08:08:44;;;;;;;7.47;3.07;;;;;;;13.06;55.71;101413.22;5066020;28;20055;-67
2023/03/16 08:11:10;;;;;;;8.30;3.27;;;;;;;12.88;54.63;101435.28;5066403;28;20103;-67
2023/03/16 08:13:35;;;;;;;6.00;3.07;;;;;;;12.96;54.49;101432.59;5065235;28;20119;-66
2023/03/16 08:16:01;;;;;;;9.07;3.10;;;;;;;12.54;55.30;101427.72;5064039;28;20475;-66
2023/03/16 08:18:28;;;;;;;6.63;2.80;;;;;;;12.21;54.63;101438.50;5058186;28;20049;-67
2023/03/16 08:20:55;;;;;;;6.50;2.90;;;;;;;12.59;55.14;101433.81;5065828;28;20024;-66
2023/03/16 08:23:23;;;;;;;4.07;2.73;;;;;;;12.29;54.61;101424.44;5064668;28;20024;-66
2023/03/16 08:25:51;;;;;;;6.33;3.33;;;;;;;12.54;53.58;101425.09;5063939;28;20028;-66
2023/03/16 08:28:20;;;;;;;7.17;2.93;;;;;;;12.68;53.31;101427.59;5065319;28;20024;-67
2023/03/16 08:30:48;;;;;;;3.80;2.70;;;;;;;13.52;51.86;101422.38;5066375;28;20082;-66
2023/03/16 08:33:16;;;;;;;8.10;3.57;;;;;;;12.41;53.45;101431.38;5062373;28;20584;-66
2023/03/16 08:35:43;;;;;;;9.10;3.30;;;;;;;12.98;52.28;101408.09;5065817;28;20016;-66
2023/03/16 08:38:09;;;;;;;8.67;2.97;;;;;;;13.16;50.85;101406.13;5063588;28;20024;-66
2023/03/16 08:40:35;;;;;;;7.00;3.00;;;;;;;13.28;51.39;101403.34;5065114;28;20066;-66
2023/03/16 08:43:01;;;;;;;9.93;2.93;;;;;;;13.56;51.40;101408.31;5069010;28;20483;-66
2023/03/16 08:45:27;;;;;;;5.40;3.30;;;;;;;13.13;52.07;101406.16;5057878;28;20024;-67
2023/03/16 08:47:53;;;;;;;5.90;2.70;;;;;;;14.07;49.59;101400.53;5065986;28;20527;-66
2023/03/16 08:50:19;;;;;;;4.80;2.63;;;;;;;13.54;50.60;101399.56;5063512;28;20025;-66
2023/03/16 08:52:45;;;;;;;7.40;2.80;;;;;;;13.73;49.91;101400.19;5050815;28;20072;-66
2023/03/16 08:55:12;;;;;;;5.60;2.97;;;;;;;13.71;50.14;101399.31;5057572;28;20033;-67
2023/03/16 08:57:40;;;;;;;7.33;3.00;;;;;;;14.17;48.37;101395.16;5065070;28;20082;-66
2023/03/16 09:00:13;;;;;;;10.87;2.73;;;;;;;14.56;48.08;101388.34;5060619;28;20028;-65
2023/03/16 09:02:42;;;;;;;3.50;2.20;;;;;;;14.29;47.59;101400.22;5064330;28;20038;-65
2023/03/16 09:05:10;;;;;;;5.60;2.50;;;;;;;14.52;47.93;101398.94;5060627;28;20039;-65
2023/03/16 09:07:36;;;;;;;4.00;2.37;;;;;;;14.27;48.17;101391.47;5058507;28;20036;-65
2023/03/16 09:10:04;;;;;;;5.07;2.43;;;;;;;14.43;46.84;101398.19;5063491;28;20043;-65
2023/03/16 09:12:30;;;;;;;7.83;2.60;;;;;;;14.64;46.70;101385.59;5060262;28;20400;-65
2023/03/16 09:14:55;;;;;;;4.97;2.50;;;;;;;15.20;46.39;101379.28;5063936;28;20606;-66
2023/03/16 09:17:21;;;;;;;5.17;2.57;;;;;;;14.69;46.97;101370.59;5063504;28;20107;-66
2023/03/16 09:19:46;;;;;;;8.77;3.33;;;;;;;15.62;44.89;101374.00;5059747;28;20033;-65
2023/03/16 09:22:12;;;;;;;7.70;2.80;;;;;;;15.81;44.80;101376.22;5060324;28;20491;-65
2023/03/16 09:24:37;;;;;;;4.90;2.57;;;;;;;15.68;44.13;101371.22;5062620;28;20053;-65
2023/03/16 09:27:04;;;;;;;4.33;2.40;;;;;;;16.27;43.75;101369.84;5063235;28;20357;-65
2023/03/16 09:29:29;;;;;;;4.90;2.80;;;;;;;15.60;43.46;101376.63;5066487;28;20119;-66
2023/03/16 09:31:55;;;;;;;5.07;2.20;;;;;;;16.28;42.29;101375.09;5054830;28;20100;-66
2023/03/16 09:34:21;;;;;;;7.83;2.30;;;;;;;16.60;42.38;101383.06;5054421;28;20031;-65
2023/03/16 09:36:47;;;;;;;7.43;2.23;;;;;;;17.13;40.38;101367.56;5060724;28;20497;-66
2023/03/16 09:39:12;;;;;;;5.23;2.17;;;;;;;16.99;40.25;101359.16;5059084;28;20030;-65
2023/03/16 09:42:16;;;;;;;6.10;2.13;;;;;;;16.17;40.59;101355.16;5061885;28;20035;-65
2023/03/16 09:45:13;;;;;;;3.23;1.87;;;;;;;17.61;38.87;101354.69;5065250;28;20036;-65
2023/03/16 09:47:40;;;;;;;4.03;2.00;;;;;;;17.05;38.52;101345.78;5060718;28;20056;-65
2023/03/16 09:50:10;;;;;;;8.23;2.20;;;;;;;16.54;39.54;101356.84;5056689;28;20515;-66
2023/03/16 09:53:01;;;;;;;5.60;1.77;;;;;;;17.23;37.78;101343.53;5059210;28;20024;-66
2023/03/16 09:55:32;;;;;;;5.72;2.35;;;;;;;17.36;37.79;101344.84;5067246;28;20012;-66
2023/03/16 09:57:59;;;;;;;9.50;1.88;;;;;;;18.13;36.82;101339.81;5066060;28;20098;-65
2023/03/16 10:00:38;;;;;;;4.93;1.80;;;;;;;18.26;37.69;101342.06;5068048;28;20033;-65
2023/03/16 10:03:50;;;;;;;4.93;2.30;;;;;;;17.48;38.32;101356.00;5066359;28;20119;-65
2023/03/16 10:06:16;;;;;;;3.37;2.23;;;;;;;16.60;39.58;101356.69;5067878;28;20058;-65
2023/03/16 10:08:53;;;;;;;4.63;2.00;;;;;;;18.09;37.97;101359.34;5061276;28;20024;-67
2023/03/16 10:11:31;;;;;;;4.40;1.73;;;;;;;17.19;38.00;101363.88;5067122;28;20030;-67
2023/03/16 10:14:23;;;;;;;5.27;1.70;;;;;;;16.88;38.72;101355.91;5053099;28;20130;-65
2023/03/16 10:16:53;;;;;;;4.68;1.75;;;;;;;18.41;36.59;101344.16;5068789;28;20064;-65
2023/03/16 10:19:29;;;;;;;5.20;2.27;;;;;;;17.78;37.48;101355.00;5064600;28;20483;-65
2023/03/16 10:21:57;;;;;;;4.87;1.80;;;;;;;17.52;37.82;101352.34;5067014;28;20024;-65
2023/03/16 10:24:26;;;;;;;7.53;2.07;;;;;;;17.58;37.32;101346.84;5068910;28;20562;-65
2023/03/16 10:26:59;;;;;;;5.53;1.50;;;;;;;17.21;37.39;101342.69;5067315;28;20523;-65
2023/03/16 10:29:29;;;;;;;5.33;1.90;;;;;;;17.17;36.86;101346.31;5055737;28;20028;-65
2023/03/16 10:32:07;;;;;;;4.57;1.90;;;;;;;17.40;37.61;101340.34;5079645;28;20036;-65
2023/03/16 10:34:34;;;;;;;3.27;1.67;;;;;;;16.94;37.11;101339.94;5060034;28;20028;-65
2023/03/16 10:37:02;;;;;;;3.20;1.80;;;;;;;16.74;37.73;101328.13;5063716;28;20020;-65
2023/03/16 10:39:35;;;;;;;5.32;1.60;;;;;;;17.29;36.84;101328.31;5063686;28;20120;-65
2023/03/16 10:42:01;;;;;;;;;;;;;;;17.05;36.70;101327.28;5060691;28;20337;-65
2023/03/16 10:44:28;;;;;;;7.10;1.87;;;;;;;16.87;38.15;101317.22;5069637;28;19912;-65
2023/03/16 10:47:03;;;;;;;5.33;1.90;;;;;;;17.60;37.08;101318.59;5060502;28;20049;-65
2023/03/16 10:49:40;;;;;;;7.67;1.70;;;;;;;17.90;36.79;101310.56;5067028;28;20024;-66
2023/03/16 10:52:22;;;;;;;4.85;1.40;;;;;;;17.02;37.86;101311.56;5063555;28;20510;-66
2023/03/16 10:54:57;;;;;;;2.83;1.53;;;;;;;17.45;36.13;101310.22;5066245;28;20082;-66
2023/03/16 10:57:47;;;;;;;7.97;2.00;;;;;;;18.65;35.14;101301.84;5058841;28;20347;-65
2023/03/16 11:00:20;;;;;;;5.77;1.80;;;;;;;17.89;36.24;101295.66;5067717;28;20480;-66
2023/03/16 11:02:48;;;;;;;6.00;1.60;;;;;;;17.45;36.34;101278.53;5069099;28;20045;-66
2023/03/16 11:05:16;;;;;;;3.80;1.50;;;;;;;17.12;36.41;101280.44;5065229;28;20028;-66
2023/03/16 11:08:18;;;;;;;3.93;1.70;;;;;;;17.32;36.09;101286.88;5067201;28;20032;-65
2023/03/16 11:10:46;;;;;;;4.93;2.45;;;;;;;17.65;35.54;101290.22;5053219;28;20044;-65
2023/03/16 11:13:18;;;;;;;9.25;2.13;;;;;;;17.51;36.88;101287.19;5059443;28;20036;-65
2023/03/16 11:15:49;;;;;;;6.20;2.25;;;;;;;17.99;35.59;101283.00;5055498;28;20396;-66
2023/03/16 11:18:23;;;;;;;5.60;2.27;;;;;;;17.33;36.26;101284.19;5083422;28;20031;-65
2023/03/16 11:20:49;;;;;;;7.37;2.07;;;;;;;17.27;36.87;101282.63;5065087;28;20491;-66
2023/03/16 11:23:17;;;;;;;5.53;1.73;;;;;;;17.53;35.67;101285.34;5068440;28;20024;-66
2023/03/16 11:25:46;;;;;;;5.43;1.73;;;;;;;17.80;35.56;101279.19;5063425;28;20025;-65
2023/03/16 11:28:40;;;;;;;7.15;2.22;;;;;;;17.52;35.46;101278.34;5057200;28;20036;-66